createdAt,value
2023-02-11T00:05:19.061Z,0.30
2023-02-11T00:10:40.600Z,0.30
2023-02-11T00:16:10.839Z,0.30
2023-02-11T00:21:33.000Z,0.20
2023-02-11T00:26:55.331Z,0.30
2023-02-11T00:32:17.635Z,0.30
2023-02-11T00:37:39.161Z,0.30
2023-02-11T00:43:00.655Z,0.30
2023-02-11T00:48:22.242Z,0.40
2023-02-11T00:53:43.754Z,0.40
2023-02-11T00:59:05.151Z,0.40
2023-02-11T01:04:26.802Z,0.40
2023-02-11T01:09:48.270Z,0.50
2023-02-11T01:15:12.221Z,0.50
2023-02-11T01:20:33.469Z,0.60
2023-02-11T01:25:55.273Z,0.70
2023-02-11T01:31:16.586Z,0.70
2023-02-11T01:36:38.498Z,0.70
2023-02-11T01:42:00.026Z,0.70
2023-02-11T01:47:22.177Z,0.80
2023-02-11T01:52:46.410Z,0.80
2023-02-11T01:58:10.061Z,0.80
2023-02-11T02:03:33.791Z,0.80
2023-02-11T02:09:01.271Z,0.80
2023-02-11T02:14:24.033Z,0.90
2023-02-11T02:20:10.833Z,0.80
2023-02-11T02:26:01.770Z,1.00
2023-02-11T02:31:37.976Z,1.10
2023-02-11T02:37:08.386Z,1.20
2023-02-11T02:42:30.568Z,1.20
2023-02-11T02:47:52.176Z,1.30
2023-02-11T02:53:18.291Z,1.40
2023-02-11T02:59:15.116Z,1.50
2023-02-11T03:04:50.968Z,1.50
2023-02-11T03:10:24.445Z,1.50
2023-02-11T03:15:50.419Z,1.60
2023-02-11T03:21:14.196Z,1.60
2023-02-11T03:26:44.248Z,1.70
2023-02-11T03:32:42.213Z,1.80
2023-02-11T03:38:15.589Z,1.80
2023-02-11T03:43:45.241Z,1.80
2023-02-11T03:49:12.336Z,1.80
2023-02-11T03:54:34.187Z,1.90
2023-02-11T03:59:59.815Z,1.90
2023-02-11T04:05:21.836Z,2.00
2023-02-11T04:10:42.987Z,2.00
2023-02-11T04:16:04.658Z,2.10
2023-02-11T04:21:26.690Z,2.10
2023-02-11T04:26:48.358Z,1.90
2023-02-11T04:32:11.491Z,1.90
2023-02-11T04:37:34.503Z,1.90
2023-02-11T04:42:56.107Z,2.00
2023-02-11T04:48:18.058Z,2.00
2023-02-11T04:53:39.308Z,2.10
2023-02-11T04:59:03.992Z,2.10
2023-02-11T05:04:25.693Z,2.10
2023-02-11T05:09:47.233Z,2.20
2023-02-11T05:15:08.886Z,2.20
2023-02-11T05:20:30.469Z,2.30
2023-02-11T05:25:52.302Z,2.30
2023-02-11T05:31:14.972Z,2.30
2023-02-11T05:36:36.261Z,2.30
2023-02-11T05:41:57.772Z,2.30
2023-02-11T05:47:19.316Z,2.30
2023-02-11T05:52:40.918Z,2.40
2023-02-11T05:58:02.322Z,2.40
2023-02-11T06:03:24.022Z,2.40
2023-02-11T06:08:45.514Z,2.40
2023-02-11T06:14:07.338Z,2.40
2023-02-11T06:19:29.060Z,2.40
2023-02-11T06:25:01.307Z,2.40
2023-02-11T06:30:22.758Z,2.40
2023-02-11T06:35:44.397Z,2.50
2023-02-11T06:41:05.722Z,2.50
2023-02-11T06:46:27.265Z,2.50
2023-02-11T06:51:48.568Z,2.50
2023-02-11T06:57:10.034Z,2.40
2023-02-11T07:02:31.732Z,2.30
2023-02-11T07:07:52.853Z,2.50
2023-02-11T07:13:14.467Z,2.40
2023-02-11T07:18:36.351Z,2.40
2023-02-11T07:23:57.553Z,2.40
2023-02-11T07:29:18.909Z,2.50
2023-02-11T07:34:40.477Z,2.40
2023-02-11T07:40:01.968Z,2.50
2023-02-11T07:45:25.462Z,2.60
2023-02-11T07:50:47.779Z,2.50
2023-02-11T07:56:10.376Z,2.50
2023-02-11T08:01:32.213Z,2.50
2023-02-11T08:06:58.868Z,2.60
2023-02-11T08:12:20.317Z,2.60
2023-02-11T08:17:41.791Z,2.60
2023-02-11T08:23:03.262Z,2.60
2023-02-11T08:28:24.920Z,2.60
2023-02-11T08:33:46.955Z,2.50
2023-02-11T08:39:20.113Z,2.50
2023-02-11T08:44:42.275Z,2.60
2023-02-11T08:50:04.978Z,2.70
2023-02-11T08:55:26.285Z,2.70
2023-02-11T09:00:49.707Z,2.80
2023-02-11T09:06:14.052Z,2.80
2023-02-11T09:11:36.678Z,2.80
2023-02-11T09:16:58.195Z,2.90
2023-02-11T09:22:19.645Z,3.10
2023-02-11T09:27:40.934Z,3.10
2023-02-11T09:33:02.544Z,3.10
2023-02-11T09:38:24.030Z,3.10
2023-02-11T09:43:48.284Z,3.30
2023-02-11T09:49:23.018Z,3.10
2023-02-11T09:55:00.440Z,3.30
2023-02-11T10:00:35.174Z,3.30
2023-02-11T10:06:09.804Z,3.30
2023-02-11T10:11:36.290Z,3.40
2023-02-11T10:17:06.454Z,3.40
2023-02-11T10:22:33.617Z,3.50
2023-02-11T10:27:58.223Z,3.40
2023-02-11T10:33:51.651Z,3.40
2023-02-11T10:39:17.430Z,3.40
2023-02-11T10:44:43.166Z,3.40
2023-02-11T10:50:22.394Z,3.40
2023-02-11T10:56:19.944Z,3.50
2023-02-11T11:01:51.973Z,3.60
2023-02-11T11:07:21.510Z,3.70
2023-02-11T11:12:45.861Z,3.70
2023-02-11T11:18:22.470Z,3.90
2023-02-11T11:23:51.289Z,4.10
2023-02-11T11:29:48.790Z,4.00
2023-02-11T11:35:27.867Z,4.10
2023-02-11T11:41:26.245Z,4.10
2023-02-11T11:46:51.347Z,4.20
2023-02-11T11:52:31.358Z,4.20
2023-02-11T11:57:53.050Z,4.30
2023-02-11T12:03:30.353Z,4.30
2023-02-11T12:09:03.705Z,4.10
2023-02-11T12:15:04.309Z,4.20
2023-02-11T12:20:34.430Z,4.30
2023-02-11T12:26:19.318Z,4.20
2023-02-11T12:31:47.852Z,4.10
2023-02-11T12:37:23.941Z,4.10
2023-02-11T12:43:21.722Z,4.30
2023-02-11T12:49:08.227Z,4.30
2023-02-11T12:54:47.711Z,4.30
2023-02-11T13:00:22.302Z,4.20
2023-02-11T13:05:43.802Z,4.10
2023-02-11T13:11:14.321Z,4.20
2023-02-11T13:16:44.234Z,4.10
2023-02-11T13:22:20.497Z,4.10
2023-02-11T13:27:58.617Z,4.20
2023-02-11T13:33:45.117Z,4.10
2023-02-11T13:39:18.999Z,4.10
2023-02-11T13:44:40.464Z,4.20
2023-02-11T13:50:06.354Z,4.20
2023-02-11T13:55:28.737Z,4.20
2023-02-11T14:00:51.939Z,4.20
2023-02-11T14:06:39.079Z,4.20
2023-02-11T14:12:24.143Z,4.30
2023-02-11T14:17:45.839Z,4.30
2023-02-11T14:23:20.336Z,4.30
2023-02-11T14:28:46.939Z,4.10
2023-02-11T14:34:32.181Z,4.30
2023-02-11T14:40:23.184Z,4.30
2023-02-11T14:45:50.092Z,4.20
2023-02-11T14:51:17.496Z,4.20
2023-02-11T14:56:39.869Z,4.20
2023-02-11T15:02:01.716Z,4.20
2023-02-11T15:07:23.443Z,4.30
2023-02-11T15:12:49.969Z,4.20
2023-02-11T15:18:22.677Z,4.20
2023-02-11T15:24:06.604Z,4.30
2023-02-11T15:29:35.804Z,4.20
2023-02-11T15:34:58.570Z,4.30
2023-02-11T15:40:23.684Z,4.30
2023-02-11T15:46:00.250Z,4.30
2023-02-11T15:51:35.607Z,4.30
2023-02-11T15:57:03.796Z,4.30
2023-02-11T16:02:29.031Z,4.30
2023-02-11T16:07:51.513Z,4.30
2023-02-11T16:13:12.643Z,4.30
2023-02-11T16:19:04.801Z,4.40
2023-02-11T16:24:28.591Z,4.40
2023-02-11T16:29:51.374Z,4.40
2023-02-11T16:35:13.827Z,4.30
2023-02-11T16:40:35.843Z,4.30
2023-02-11T16:45:58.384Z,4.30
2023-02-11T16:51:19.719Z,4.30
2023-02-11T16:56:41.723Z,4.20
2023-02-11T17:02:03.408Z,4.40
2023-02-11T17:07:25.307Z,4.30
2023-02-11T17:12:48.243Z,4.10
2023-02-11T17:18:16.986Z,4.10
2023-02-11T17:23:38.844Z,4.10
2023-02-11T17:29:00.249Z,4.00
2023-02-11T17:34:22.778Z,4.00
2023-02-11T17:39:44.803Z,3.90
2023-02-11T17:45:07.009Z,3.70
2023-02-11T17:50:29.508Z,3.70
2023-02-11T17:55:51.288Z,3.70
2023-02-11T18:01:13.696Z,3.60
2023-02-11T18:06:35.393Z,3.60
2023-02-11T18:11:58.462Z,3.60
2023-02-11T18:17:20.764Z,3.60
2023-02-11T18:22:44.297Z,3.70
2023-02-11T18:28:05.527Z,3.60
2023-02-11T18:33:27.736Z,3.70
2023-02-11T18:38:49.554Z,3.70
2023-02-11T18:44:14.283Z,3.90
2023-02-11T18:49:36.342Z,3.90
2023-02-11T18:54:58.017Z,3.90
2023-02-11T19:00:20.895Z,4.00
2023-02-11T19:05:48.066Z,4.00
2023-02-11T19:11:09.259Z,4.10
2023-02-11T19:16:30.639Z,4.10
2023-02-11T19:21:52.251Z,4.20
2023-02-11T19:27:13.866Z,4.20
2023-02-11T19:32:35.370Z,4.20
2023-02-11T19:37:56.952Z,4.30
2023-02-11T19:43:18.128Z,4.30
2023-02-11T19:48:39.381Z,4.30
2023-02-11T19:54:00.782Z,4.30
2023-02-11T19:59:22.309Z,4.30
2023-02-11T20:04:43.961Z,4.30
2023-02-11T20:10:06.234Z,4.40
2023-02-11T20:15:27.798Z,4.30
2023-02-11T20:20:49.275Z,4.40
2023-02-11T20:26:13.905Z,4.40
2023-02-11T20:31:35.927Z,4.50
2023-02-11T20:36:57.358Z,4.50
2023-02-11T20:42:18.469Z,4.40
2023-02-11T20:47:40.052Z,4.40
2023-02-11T20:53:01.558Z,4.50
2023-02-11T20:58:23.195Z,4.60
2023-02-11T21:04:02.591Z,4.50
2023-02-11T21:09:27.239Z,4.50
2023-02-11T21:14:48.795Z,4.40
2023-02-11T21:20:10.363Z,4.40
2023-02-11T21:25:31.819Z,4.50
2023-02-11T21:30:56.223Z,4.50
2023-02-11T21:36:18.103Z,4.60
2023-02-11T21:41:39.826Z,4.60
2023-02-11T21:47:01.318Z,4.40
2023-02-11T21:52:23.079Z,4.60
2023-02-11T21:57:45.923Z,4.60
2023-02-11T22:03:07.465Z,4.60
2023-02-11T22:08:31.531Z,4.60
2023-02-11T22:13:57.880Z,4.60
2023-02-11T22:19:19.137Z,4.60
2023-02-11T22:24:41.812Z,4.60
2023-02-11T22:30:03.941Z,4.60
2023-02-11T22:35:25.346Z,4.60
2023-02-11T22:40:46.803Z,4.70
2023-02-11T22:46:08.946Z,4.60
2023-02-11T22:51:31.329Z,4.60
2023-02-11T22:56:53.366Z,4.80
2023-02-11T23:02:15.031Z,4.90
2023-02-11T23:07:36.493Z,4.70
2023-02-11T23:12:57.644Z,4.80
2023-02-11T23:18:19.227Z,4.70
2023-02-11T23:23:40.770Z,4.80
2023-02-11T23:29:02.470Z,4.70
2023-02-11T23:34:25.659Z,4.80
2023-02-11T23:39:46.830Z,4.80
2023-02-11T23:45:09.151Z,4.80
2023-02-11T23:50:30.719Z,4.90
2023-02-11T23:55:52.285Z,4.90
